Time;durP1;ratioP1;P1;durP2;ratioP2;P2;SDS_P1;SDS_P2;PMS_P1;PMS_P2;Temp;Humidity;BMP_temperature;BMP_pressure;BME280_temperature;BME280_humidity;BME280_pressure;Samples;Min_cycle;Max_cycle;Signal;HPM_P1;HPM_P2
2023/12/12 00:00:36;;;;;;;48.13;18.03;;;;;;;0.77;100.00;100172.30;127356;1086;103604;-77
2023/12/12 00:03:24;;;;;;;49.90;18.47;;;;;;;0.80;100.00;100164.76;127425;1086;101832;-77
2023/12/12 00:05:53;;;;;;;47.00;17.10;;;;;;;0.81;100.00;100167.45;127474;1086;104136;-77
2023/12/12 00:08:22;;;;;;;51.60;19.03;;;;;;;0.82;99.83;100153.72;127627;1086;101768;-77
2023/12/12 00:10:51;;;;;;;55.47;21.23;;;;;;;0.85;100.00;100147.88;127105;1089;104107;-77
2023/12/12 00:13:19;;;;;;;53.33;19.30;;;;;;;0.83;99.83;100146.89;127386;1086;101890;-76
2023/12/12 00:15:48;;;;;;;53.03;19.53;;;;;;;0.85;100.00;100140.12;127290;1086;104231;-77
2023/12/12 00:18:17;;;;;;;44.77;18.17;;;;;;;0.83;100.00;100142.61;127219;1086;104063;-77
2023/12/12 00:20:46;;;;;;;51.30;19.40;;;;;;;0.85;100.00;100142.71;127192;1086;104257;-77
2023/12/12 00:23:15;;;;;;;53.40;18.80;;;;;;;0.86;100.00;100147.09;127142;1086;102107;-77
2023/12/12 00:25:44;;;;;;;49.50;18.20;;;;;;;0.88;100.00;100163.59;127272;1086;101877;-77
2023/12/12 00:28:12;;;;;;;51.37;19.20;;;;;;;0.88;100.00;100153.25;127257;1086;102022;-77
2023/12/12 00:30:41;;;;;;;50.43;18.97;;;;;;;0.86;100.00;100147.98;127148;1086;104158;-77
2023/12/12 00:33:10;;;;;;;53.70;20.10;;;;;;;0.87;100.00;100146.28;127303;1086;104197;-77
2023/12/12 00:35:39;;;;;;;53.13;19.67;;;;;;;0.88;100.00;100150.67;127666;1086;101855;-77
2023/12/12 00:38:07;;;;;;;56.07;20.87;;;;;;;0.91;100.00;100152.58;127725;1086;102418;-77
2023/12/12 00:40:36;;;;;;;55.20;20.17;;;;;;;0.95;100.00;100158.06;127857;1086;104210;-77
2023/12/12 00:43:05;;;;;;;52.73;19.63;;;;;;;0.98;100.00;100155.69;127867;1086;101842;-78
2023/12/12 00:45:33;;;;;;;49.20;17.07;;;;;;;0.99;100.00;100149.70;127547;1086;101758;-77
2023/12/12 00:48:02;;;;;;;50.03;18.60;;;;;;;0.99;100.00;100141.07;127363;1086;102082;-77
2023/12/12 00:50:31;;;;;;;49.90;19.20;;;;;;;0.99;100.00;100143.66;126928;1086;104171;-77
2023/12/12 00:53:00;;;;;;;50.25;18.70;;;;;;;0.98;100.00;100142.77;127941;1086;101759;-78
2023/12/12 00:55:29;;;;;;;57.10;21.03;;;;;;;1.01;100.00;100152.39;127880;1086;104190;-77
2023/12/12 00:57:58;;;;;;;54.13;19.63;;;;;;;1.02;100.00;100155.09;127486;1086;102191;-78
2023/12/12 01:00:26;;;;;;;53.37;20.33;;;;;;;1.03;100.00;100154.31;127577;1086;102844;-77
2023/12/12 01:02:55;;;;;;;53.40;19.90;;;;;;;1.05;100.00;100155.30;127512;1089;102151;-78
2023/12/12 01:05:24;;;;;;;52.00;20.00;;;;;;;1.07;100.00;100148.53;127673;1086;103253;-77
2023/12/12 01:07:53;;;;;;;54.33;21.13;;;;;;;1.09;100.00;100148.63;127133;1090;104158;-77
2023/12/12 01:10:22;;;;;;;51.90;20.50;;;;;;;1.12;100.00;100147.95;128021;1086;101709;-78
2023/12/12 01:12:50;;;;;;;55.73;21.30;;;;;;;1.12;100.00;100146.26;127383;1086;101908;-77
2023/12/12 01:15:20;;;;;;;52.30;20.63;;;;;;;1.14;100.00;100148.95;127356;1086;101812;-78
2023/12/12 01:17:48;;;;;;;55.00;21.67;;;;;;;1.13;100.00;100142.02;127936;1086;102172;-77
2023/12/12 01:20:17;;;;;;;54.73;21.90;;;;;;;1.15;100.00;100143.88;127862;1085;102041;-78
2023/12/12 01:22:46;;;;;;;54.03;20.97;;;;;;;1.15;100.00;100141.30;127438;1089;101990;-78
2023/12/12 01:25:15;;;;;;;52.10;18.90;;;;;;;1.16;100.00;100142.22;127107;1086;118216;-79
2023/12/12 01:27:44;;;;;;;55.10;20.07;;;;;;;1.13;100.00;100142.02;126841;1085;101852;-77
2023/12/12 01:30:13;;;;;;;55.93;21.13;;;;;;;1.11;100.00;100140.98;127190;1089;101865;-78
2023/12/12 01:32:42;;;;;;;52.93;21.37;;;;;;;1.11;100.00;100144.48;127439;1086;104223;-78
2023/12/12 01:35:11;;;;;;;54.60;20.97;;;;;;;1.14;100.00;100141.20;127346;1086;101874;-77
2023/12/12 01:37:40;;;;;;;53.97;20.60;;;;;;;1.16;100.00;100134.47;127547;1086;104328;-78
2023/12/12 01:40:10;;;;;;;55.37;22.03;;;;;;;1.17;100.00;100124.23;127324;1086;104309;-78
2023/12/12 01:42:39;;;;;;;50.70;18.93;;;;;;;1.18;100.00;100122.53;127174;1085;102057;-77
2023/12/12 01:45:10;;;;;;;51.93;20.83;;;;;;;1.15;100.00;100120.62;127212;1086;104165;-78
2023/12/12 01:47:39;;;;;;;54.35;21.80;;;;;;;1.15;100.00;100123.20;127769;1086;101794;-77
2023/12/12 01:50:09;;;;;;;60.40;21.07;;;;;;;1.17;100.00;100120.72;127486;1086;104219;-78
2023/12/12 01:52:38;;;;;;;52.73;19.10;;;;;;;1.17;100.00;100119.06;127710;1086;101980;-78
2023/12/12 01:55:08;;;;;;;55.23;20.87;;;;;;;1.16;100.00;100108.62;127301;1086;104211;-78
2023/12/12 01:57:37;;;;;;;59.70;22.53;;;;;;;1.15;100.00;100099.95;127535;1086;101980;-78
2023/12/12 02:00:09;;;;;;;54.17;20.60;;;;;;;1.16;100.00;100103.45;127498;1086;102076;-78
2023/12/12 02:02:39;;;;;;;;;;;;;;;1.16;100.00;100106.03;127668;1086;102775;-78
2023/12/12 02:05:09;;;;;;;52.10;19.83;;;;;;;1.15;100.00;100096.48;127254;1086;101899;-77
2023/12/12 02:07:39;;;;;;;52.83;20.63;;;;;;;1.14;100.00;100086.92;127786;1086;102060;-78
2023/12/12 02:10:09;;;;;;;54.40;19.63;;;;;;;1.13;100.00;100085.16;127488;1086;104197;-78
2023/12/12 02:12:38;;;;;;;59.30;21.57;;;;;;;1.14;100.00;100086.92;127440;1086;104245;-78
2023/12/12 02:15:08;;;;;;;53.83;22.07;;;;;;;1.10;100.00;100085.84;127324;1086;101882;-78
2023/12/12 02:17:37;;;;;;;55.93;20.43;;;;;;;1.11;100.00;100082.47;127559;1086;104189;-78
2023/12/12 02:20:09;;;;;;;53.80;18.70;;;;;;;1.11;100.00;100084.13;127574;1086;104165;-78
2023/12/12 02:22:37;;;;;;;48.10;18.60;;;;;;;1.11;100.00;100082.47;128094;1086;104101;-78
2023/12/12 02:25:07;;;;;;;45.33;18.33;;;;;;;1.11;100.00;100076.38;127513;1086;101765;-78
2023/12/12 02:27:36;;;;;;;48.43;18.40;;;;;;;1.13;100.00;100077.41;127593;1086;102286;-78
2023/12/12 02:30:08;;;;;;;47.63;17.83;;;;;;;1.12;100.00;100073.02;127532;1086;101823;-78
2023/12/12 02:32:37;;;;;;;48.20;18.03;;;;;;;1.14;100.00;100071.42;127646;1086;102148;-78
2023/12/12 02:35:07;;;;;;;49.53;18.83;;;;;;;1.12;100.00;100062.67;127420;1086;102121;-77
2023/12/12 02:37:36;;;;;;;49.17;18.13;;;;;;;1.10;100.00;100065.16;127583;1089;102281;-78
2023/12/12 02:40:08;;;;;;;56.37;20.73;;;;;;;1.11;100.00;100055.70;127418;1086;102086;-78
2023/12/12 02:42:42;;;;;;;52.63;19.90;;;;;;;1.11;100.00;100060.87;127600;1087;101909;-78
2023/12/12 02:45:11;;;;;;;52.35;20.45;;;;;;;1.11;100.00;100064.37;127363;1086;102031;-78
2023/12/12 02:47:40;;;;;;;50.67;17.93;;;;;;;1.11;100.00;100060.87;127292;1089;104171;-77
2023/12/12 02:50:10;;;;;;;51.90;18.93;;;;;;;1.10;100.00;100072.91;127572;1086;102526;-78
2023/12/12 02:52:38;;;;;;;50.40;18.87;;;;;;;1.07;100.00;100059.78;127018;1086;101947;-78
2023/12/12 02:55:09;;;;;;;46.80;18.80;;;;;;;1.05;100.00;100057.10;127229;1086;102029;-78
2023/12/12 02:57:37;;;;;;;42.17;16.10;;;;;;;1.05;100.00;100051.94;127082;1086;104165;-78
2023/12/12 03:00:09;;;;;;;48.63;19.30;;;;;;;1.03;100.00;100047.48;126854;1086;102139;-78
2023/12/12 03:02:38;;;;;;;50.03;19.83;;;;;;;1.01;100.00;100052.55;127240;1086;103571;-77
2023/12/12 03:05:08;;;;;;;47.23;18.30;;;;;;;0.99;100.00;100051.53;127250;1086;102008;-78
2023/12/12 03:07:37;;;;;;;47.07;18.90;;;;;;;1.01;100.00;100052.55;127157;1086;102104;-78
2023/12/12 03:10:08;;;;;;;47.13;19.27;;;;;;;1.01;100.00;100052.55;126943;1086;102404;-78
2023/12/12 03:12:36;;;;;;;48.07;18.90;;;;;;;1.02;100.00;100045.67;127114;1086;104169;-78
2023/12/12 03:15:07;;;;;;;47.33;18.53;;;;;;;1.03;100.00;100045.78;127294;1086;101997;-77
2023/12/12 03:17:35;;;;;;;47.60;18.00;;;;;;;1.02;100.00;100049.15;127165;1086;104625;-77
2023/12/12 03:20:07;;;;;;;44.70;16.07;;;;;;;1.01;100.00;100036.13;126666;1089;104173;-77
2023/12/12 03:22:35;;;;;;;46.07;17.63;;;;;;;0.99;100.00;100029.97;126944;1086;104162;-77
2023/12/12 03:25:07;;;;;;;46.47;18.00;;;;;;;1.00;100.00;100039.52;127118;1086;101847;-78
2023/12/12 03:27:36;;;;;;;45.70;17.23;;;;;;;1.01;100.00;100041.30;127054;1086;102349;-78
2023/12/12 03:30:07;;;;;;;48.43;18.43;;;;;;;0.98;100.00;100035.92;126973;1086;101817;-78
2023/12/12 03:32:36;;;;;;;48.23;19.10;;;;;;;0.96;100.00;100035.82;126647;1086;104153;-77
2023/12/12 03:35:06;;;;;;;40.00;15.47;;;;;;;0.95;100.00;100039.22;126989;1086;104186;-77
2023/12/12 03:37:35;;;;;;;50.37;19.27;;;;;;;0.93;100.00;100040.78;126882;1086;101836;-77
2023/12/12 03:40:04;;;;;;;46.80;18.40;;;;;;;0.94;100.00;100041.70;127039;1086;104190;-77
2023/12/12 03:42:33;;;;;;;46.57;17.97;;;;;;;0.94;100.00;100058.09;127116;1086;102108;-77
2023/12/12 03:45:02;;;;;;;43.10;17.27;;;;;;;0.94;100.00;100063.25;126831;1086;102188;-78
2023/12/12 03:47:31;;;;;;;45.17;17.20;;;;;;;0.94;100.00;100060.67;127154;1086;104181;-78
2023/12/12 03:50:03;;;;;;;44.27;17.57;;;;;;;0.94;100.00;100063.25;126600;1086;104309;-77
2023/12/12 03:52:32;;;;;;;47.70;17.00;;;;;;;0.93;100.00;100056.28;126921;1086;101890;-77
2023/12/12 03:55:01;;;;;;;47.53;17.60;;;;;;;0.93;100.00;100061.45;126595;1088;104297;-77
2023/12/12 03:57:29;;;;;;;43.17;17.37;;;;;;;0.92;100.00;100059.69;126841;1086;101858;-77
2023/12/12 03:59:58;;;;;;;46.83;17.67;;;;;;;0.91;100.00;100060.47;127004;1086;102475;-77
2023/12/12 04:02:28;;;;;;;51.00;19.17;;;;;;;0.89;100.00;100065.53;126836;1086;104245;-77
2023/12/12 04:04:57;;;;;;;48.83;19.30;;;;;;;0.89;100.00;100069.81;126762;1086;104159;-77
2023/12/12 04:07:26;;;;;;;44.60;17.27;;;;;;;0.90;100.00;100079.33;126852;1086;102265;-77
2023/12/12 04:09:54;;;;;;;52.40;18.90;;;;;;;0.90;100.00;100089.66;126728;1086;102425;-77
2023/12/12 04:12:24;;;;;;;46.53;17.87;;;;;;;0.92;100.00;100092.35;126570;1087;102744;-77
2023/12/12 04:14:52;;;;;;;46.00;18.13;;;;;;;0.94;100.00;100095.95;126854;1086;104235;-78
2023/12/12 04:17:21;;;;;;;51.87;19.80;;;;;;;0.96;100.00;100099.53;126855;1086;102112;-77
2023/12/12 04:19:50;;;;;;;46.47;17.93;;;;;;;0.98;100.00;100100.52;126994;1086;102114;-78
2023/12/12 04:22:19;;;;;;;46.00;18.30;;;;;;;0.98;100.00;100104.02;126649;1089;104181;-78
2023/12/12 04:24:48;;;;;;;48.33;19.63;;;;;;;1.01;100.00;100100.72;126893;1085;104251;-78
2023/12/12 04:27:16;;;;;;;51.07;19.80;;;;;;;1.03;100.00;100092.29;126790;1086;104143;-77
2023/12/12 04:29:48;;;;;;;50.33;19.90;;;;;;;1.05;100.00;100092.39;126481;1089;102173;-77
2023/12/12 04:32:16;;;;;;;48.50;18.83;;;;;;;1.06;100.00;100089.00;126784;1086;103288;-77
2023/12/12 04:34:45;;;;;;;50.07;19.23;;;;;;;1.05;100.00;100088.11;126780;1086;104216;-77
2023/12/12 04:37:14;;;;;;;50.60;20.13;;;;;;;1.07;100.00;100085.63;126489;1086;104159;-77
2023/12/12 04:39:43;;;;;;;53.53;19.43;;;;;;;1.06;100.00;100076.99;126743;1086;101829;-77
2023/12/12 04:42:14;;;;;;;48.50;19.43;;;;;;;1.06;100.00;100071.83;126624;1086;104190;-77
2023/12/12 04:44:43;;;;;;;51.53;20.43;;;;;;;1.06;100.00;100069.24;126953;1086;104404;-77
2023/12/12 04:47:13;;;;;;;45.23;18.40;;;;;;;1.06;100.00;100084.74;126740;1086;102181;-77
2023/12/12 04:49:41;;;;;;;51.50;21.33;;;;;;;1.07;100.00;100078.76;126562;1086;104216;-77
2023/12/12 04:52:10;;;;;;;50.90;18.13;;;;;;;1.07;100.00;100085.63;126706;1086;104152;-78
2023/12/12 04:54:42;;;;;;;46.37;18.67;;;;;;;1.02;100.00;100095.66;126573;1086;104184;-77
2023/12/12 04:57:11;;;;;;;51.00;18.77;;;;;;;1.01;100.00;100095.55;126843;1086;104302;-77
2023/12/12 04:59:40;;;;;;;47.43;18.60;;;;;;;1.00;100.00;100093.78;126779;1086;106998;-77
2023/12/12 05:02:08;;;;;;;49.27;19.37;;;;;;;1.00;100.00;100081.75;126821;1086;102147;-77
2023/12/12 05:04:37;;;;;;;46.80;18.30;;;;;;;1.00;100.00;100084.33;126812;1086;104172;-78
2023/12/12 05:07:06;;;;;;;44.37;17.17;;;;;;;1.00;100.00;100099.84;126522;1086;104613;-78
2023/12/12 05:09:35;;;;;;;48.03;18.77;;;;;;;1.00;100.00;100107.59;126864;1086;104168;-78
2023/12/12 05:12:05;;;;;;;44.13;19.20;;;;;;;1.03;100.00;100105.21;126789;1086;101937;-78
2023/12/12 05:14:34;;;;;;;44.57;19.30;;;;;;;1.05;100.00;100110.48;126892;1086;104255;-77
2023/12/12 05:17:02;;;;;;;47.20;18.03;;;;;;;1.03;100.00;100109.49;126533;1086;102031;-78
2023/12/12 05:19:31;;;;;;;46.97;19.13;;;;;;;1.02;100.00;100105.99;126602;1086;104162;-77
2023/12/12 05:22:00;;;;;;;48.33;19.60;;;;;;;1.04;100.00;100095.77;126610;1086;102028;-77
2023/12/12 05:24:29;;;;;;;46.10;17.80;;;;;;;1.04;100.00;100108.67;126693;1086;104271;-77
2023/12/12 05:26:58;;;;;;;44.07;16.83;;;;;;;1.01;100.00;100103.30;126801;1086;104703;-78
2023/12/12 05:29:27;;;;;;;46.33;17.97;;;;;;;1.01;100.00;100103.30;126785;1086;102111;-78
2023/12/12 05:31:55;;;;;;;43.27;17.93;;;;;;;1.00;100.00;100114.45;126916;1086;101947;-78
2023/12/12 05:34:24;;;;;;;48.93;19.10;;;;;;;1.02;100.00;100124.08;126532;1090;104232;-78
2023/12/12 05:36:56;;;;;;;47.37;18.30;;;;;;;1.04;100.00;100111.27;126770;1086;104207;-78
2023/12/12 05:39:27;;;;;;;46.27;18.07;;;;;;;1.03;100.00;100109.49;126616;1085;102342;-76
2023/12/12 05:41:57;;;;;;;46.60;18.03;;;;;;;1.03;100.00;100104.33;126444;1086;102005;-77
2023/12/12 05:44:26;;;;;;;47.77;19.17;;;;;;;1.02;100.00;100102.52;126743;1086;104165;-77
2023/12/12 05:46:55;;;;;;;43.80;18.63;;;;;;;0.99;100.00;100105.78;126351;1087;101921;-77
2023/12/12 05:49:24;;;;;;;47.27;18.40;;;;;;;1.02;100.00;100105.99;126278;1086;104020;-76
2023/12/12 05:51:52;;;;;;;49.97;19.87;;;;;;;1.04;100.00;100111.27;126689;1086;102065;-78
2023/12/12 05:54:21;;;;;;;46.90;18.73;;;;;;;1.05;100.00;100108.78;126637;1086;104423;-78
2023/12/12 05:57:14;;;;;;;48.33;19.87;;;;;;;1.10;100.00;100113.38;126854;1086;104331;-78
2023/12/12 05:59:47;;;;;;;47.00;19.73;;;;;;;1.16;100.00;100103.45;126975;1086;102235;-76
2023/12/12 06:02:16;;;;;;;45.15;18.15;;;;;;;1.18;100.00;100099.27;126536;1086;104361;-76
2023/12/12 06:04:49;;;;;;;48.83;18.63;;;;;;;1.18;100.00;100104.44;127676;1085;101922;-75
2023/12/12 06:07:23;;;;;;;39.90;16.63;;;;;;;1.19;100.00;100112.30;126251;1086;103584;-74
2023/12/12 06:09:52;;;;;;;44.97;18.70;;;;;;;1.19;100.00;100116.58;126134;1086;104172;-75
2023/12/12 06:12:25;;;;;;;45.50;18.03;;;;;;;1.21;100.00;100100.36;125896;1086;104607;-74
2023/12/12 06:14:54;;;;;;;49.30;19.20;;;;;;;1.26;100.00;100108.41;125830;1086;104034;-75
2023/12/12 06:17:28;;;;;;;44.43;18.37;;;;;;;1.31;100.00;100107.05;126275;1086;104031;-74
2023/12/12 06:19:57;;;;;;;47.60;18.23;;;;;;;1.31;100.00;100112.23;126301;1086;104231;-75
2023/12/12 06:22:31;;;;;;;48.77;19.30;;;;;;;1.35;100.00;100114.20;126470;1086;102318;-73
2023/12/12 06:25:01;;;;;;;52.17;19.40;;;;;;;1.35;100.00;100124.54;126362;1086;104389;-75
2023/12/12 06:27:32;;;;;;;53.40;20.33;;;;;;;1.35;100.00;100116.78;126320;1086;104216;-74
2023/12/12 06:30:07;;;;;;;55.23;20.23;;;;;;;1.35;100.00;100121.95;126275;1086;101935;-75
2023/12/12 06:32:36;;;;;;;52.67;20.40;;;;;;;1.37;100.00;100117.80;125926;1086;104261;-76
2023/12/12 06:35:06;;;;;;;50.37;20.07;;;;;;;1.39;100.00;100125.66;126272;1086;101819;-75
2023/12/12 06:37:35;;;;;;;50.60;20.20;;;;;;;1.42;100.00;100131.03;126264;1086;104404;-75
2023/12/12 06:40:07;;;;;;;49.83;19.13;;;;;;;1.45;100.00;100126.06;125904;1086;101926;-74
2023/12/12 06:42:36;;;;;;;50.23;18.47;;;;;;;1.42;100.00;100118.11;125939;1089;104318;-75
2023/12/12 06:45:13;;;;;;;49.23;19.10;;;;;;;1.34;100.00;100116.68;126976;1086;104183;-74
2023/12/12 06:47:42;;;;;;;49.53;19.27;;;;;;;1.31;100.00;100111.30;126240;1086;104233;-74
2023/12/12 06:50:14;;;;;;;46.73;18.33;;;;;;;1.31;100.00;100111.30;126192;1086;104191;-74
2023/12/12 06:52:46;;;;;;;47.10;19.10;;;;;;;1.31;100.00;100109.64;126266;1086;104216;-74
2023/12/12 06:55:17;;;;;;;51.10;20.03;;;;;;;1.27;100.00;100106.75;125936;1086;101879;-74
2023/12/12 06:57:55;;;;;;;51.73;20.60;;;;;;;1.22;100.00;100109.03;125988;1086;101941;-74
2023/12/12 07:00:25;;;;;;;47.10;20.63;;;;;;;1.27;100.00;100102.47;126197;1086;104232;-74
2023/12/12 07:02:54;;;;;;;53.90;21.67;;;;;;;1.36;100.00;100107.36;126246;1086;104437;-76
2023/12/12 07:05:27;;;;;;;50.47;19.77;;;;;;;1.42;100.00;100102.59;127614;1085;104155;-79
2023/12/12 07:07:59;;;;;;;44.83;17.90;;;;;;;1.40;100.00;100106.75;126477;1086;101880;-74
2023/12/12 07:10:31;;;;;;;46.93;18.53;;;;;;;1.40;100.00;100112.84;125957;1088;104162;-74
2023/12/12 07:13:10;;;;;;;46.67;18.43;;;;;;;1.41;100.00;100116.30;127158;1086;104202;-75
2023/12/12 07:15:43;;;;;;;46.67;18.80;;;;;;;1.42;100.00;100118.11;126457;1086;104213;-76
2023/12/12 07:18:36;;;;;;;44.77;18.40;;;;;;;1.43;100.00;100125.97;127187;1086;104218;-75
2023/12/12 07:21:08;;;;;;;47.57;18.20;;;;;;;1.40;100.00;100140.36;126774;1086;102318;-75
2023/12/12 07:23:42;;;;;;;41.53;16.37;;;;;;;1.40;100.00;100137.77;126566;1086;104171;-80
2023/12/12 07:26:54;;;;;;;45.57;17.97;;;;;;;1.41;100.00;100132.70;126865;1086;104609;-78
2023/12/12 07:30:16;;;;;;;44.83;17.67;;;;;;;1.40;100.00;100128.34;127534;1093;104499;-76
2023/12/12 07:32:47;;;;;;;45.73;17.97;;;;;;;1.43;100.00;100144.06;127276;1086;107216;-78
2023/12/12 07:35:24;;;;;;;43.60;17.80;;;;;;;1.54;100.00;100146.44;127959;1085;104175;-75
2023/12/12 07:38:17;;;;;;;45.20;17.77;;;;;;;1.61;100.00;100136.60;127910;1085;104270;-76
2023/12/12 07:41:16;;;;;;;;;;;;;;;;;;;;;
2023/12/12 07:43:46;;;;;;;45.67;17.70;;;;;;;1.57;100.00;100123.37;128496;1086;102084;-76
2023/12/12 07:46:16;;;;;;;44.37;18.43;;;;;;;1.55;100.00;100118.09;127267;1086;102189;-76
2023/12/12 07:48:47;;;;;;;42.03;16.03;;;;;;;1.55;100.00;100112.04;128198;1086;101619;-75
2023/12/12 07:51:18;;;;;;;43.70;19.00;;;;;;;1.57;100.00;100121.70;128106;1088;101743;-75
2023/12/12 07:53:55;;;;;;;;;;;;;;;1.65;100.00;100137.69;129075;1085;101746;-76
2023/12/12 07:56:39;;;;;;;47.73;17.67;;;;;;;1.70;100.00;100133.73;127863;1086;104242;-75
2023/12/12 07:59:17;;;;;;;44.43;18.37;;;;;;;1.77;100.00;100124.67;127836;1085;104181;-76
2023/12/12 08:01:49;;;;;;;47.00;18.30;;;;;;;1.82;100.00;100120.67;127812;1086;104210;-77
2023/12/12 08:04:27;;;;;;;43.20;16.40;;;;;;;1.84;100.00;100116.52;128572;1085;101764;-79
2023/12/12 08:07:20;;;;;;;45.27;18.27;;;;;;;1.80;100.00;100119.69;128886;1085;102318;-75
2023/12/12 08:10:03;;;;;;;49.33;17.63;;;;;;;1.74;100.00;100125.35;127237;1086;101959;-75
2023/12/12 08:12:36;;;;;;;43.33;17.87;;;;;;;1.66;100.00;100113.62;126388;1086;104203;-74
2023/12/12 08:15:16;;;;;;;43.13;17.10;;;;;;;1.67;100.00;100117.09;127106;1086;101793;-77
2023/12/12 08:17:53;;;;;;;46.77;19.07;;;;;;;1.69;100.00;100113.83;127837;1087;102059;-77
2023/12/12 08:20:36;;;;;;;46.63;18.20;;;;;;;1.75;100.00;100121.98;128154;1086;101460;-77
2023/12/12 08:23:12;;;;;;;48.17;19.70;;;;;;;1.82;100.00;100127.55;127594;1089;104296;-76
2023/12/12 08:25:49;;;;;;;44.13;18.17;;;;;;;1.82;100.00;100123.27;127357;1086;101929;-78
2023/12/12 08:28:25;;;;;;;42.57;18.40;;;;;;;1.84;100.00;100121.69;128693;1085;101990;-75
2023/12/12 08:30:57;;;;;;;43.73;17.30;;;;;;;1.79;100.00;100111.05;127132;1089;101881;-74
2023/12/12 08:33:34;;;;;;;44.43;17.60;;;;;;;1.75;100.00;100097.81;126382;1086;101883;-75
2023/12/12 08:36:04;;;;;;;40.23;16.97;;;;;;;1.72;100.00;100100.20;126667;1086;102287;-75
2023/12/12 08:38:45;;;;;;;46.73;19.87;;;;;;;1.74;100.00;100096.02;128628;1085;104283;-77
2023/12/12 08:41:19;;;;;;;46.28;18.32;;;;;;;1.77;100.00;100091.92;126566;1086;102016;-77
2023/12/12 08:43:57;;;;;;;43.87;18.07;;;;;;;1.76;100.00;100107.34;126905;1086;104162;-76
2023/12/12 08:46:37;;;;;;;44.63;17.57;;;;;;;1.83;100.00;100108.66;128403;1085;101792;-77
2023/12/12 08:49:09;;;;;;;45.53;17.23;;;;;;;1.90;100.00;100111.73;126794;1086;104168;-77
2023/12/12 08:51:41;;;;;;;47.57;19.10;;;;;;;1.97;100.00;100110.42;126807;1086;104235;-77
2023/12/12 08:54:18;;;;;;;52.30;20.27;;;;;;;2.02;100.00;100121.95;128046;1086;101729;-78
2023/12/12 08:56:52;;;;;;;52.00;19.73;;;;;;;2.06;100.00;100118.78;127324;1089;101969;-78
2023/12/12 08:59:27;;;;;;;42.03;17.83;;;;;;;2.11;100.00;100114.77;126352;1086;101869;-76
2023/12/12 09:02:17;;;;;;;45.77;18.93;;;;;;;2.14;100.00;100112.38;126167;1086;101815;-78
2023/12/12 09:04:55;;;;;;;47.20;19.20;;;;;;;2.18;100.00;100097.05;126401;1086;107485;-77
2023/12/12 09:07:27;;;;;;;45.30;18.93;;;;;;;2.20;100.00;100109.30;126959;1088;104149;-75
2023/12/12 09:10:15;;;;;;;48.27;19.13;;;;;;;2.23;100.00;100111.16;126200;1086;101858;-76
2023/12/12 09:12:49;;;;;;;47.07;19.20;;;;;;;2.24;100.00;100106.08;126305;1089;101996;-75
2023/12/12 09:15:23;;;;;;;44.13;18.23;;;;;;;2.26;100.00;100095.81;126157;1086;102057;-76
2023/12/12 09:18:01;;;;;;;51.53;20.43;;;;;;;2.28;100.00;100083.88;127476;1085;101906;-76
2023/12/12 09:20:32;;;;;;;47.53;20.17;;;;;;;2.34;100.00;100079.09;126175;1086;104264;-76
2023/12/12 09:23:01;;;;;;;44.60;19.00;;;;;;;2.36;100.00;100077.47;127056;1089;102017;-77
2023/12/12 09:26:01;;;;;;;45.63;18.57;;;;;;;2.39;100.00;100076.78;127716;1087;101963;-76
2023/12/12 09:29:00;;;;;;;49.73;20.87;;;;;;;2.32;100.00;100066.05;128771;1085;101800;-78
2023/12/12 09:35:56;;;;;;;39.55;17.25;;;;;;;2.13;100.00;100069.16;127504;1089;102305;-78
2023/12/12 09:39:27;;;;;;;40.63;15.83;;;;;;;2.12;100.00;100079.42;126400;1086;101884;-76
2023/12/12 09:42:03;;;;;;;37.27;15.70;;;;;;;2.09;100.00;100079.27;126664;1086;104172;-75
2023/12/12 09:44:34;;;;;;;41.67;16.63;;;;;;;2.03;100.00;100071.11;126616;1086;101970;-75
2023/12/12 09:47:06;;;;;;;38.13;15.80;;;;;;;2.07;100.00;100067.89;126296;1089;101963;-75
2023/12/12 09:49:54;;;;;;;;;;;;;;;;;;;;;
2023/12/12 09:52:41;;;;;;;41.43;17.43;;;;;;;2.10;100.00;100069.00;127457;1089;104187;-79
2023/12/12 09:56:26;;;;;;;;;;;;;;;;;;;;;
2023/12/12 09:59:27;;;;;;;47.17;19.17;;;;;;;2.28;100.00;100056.29;126812;1089;102266;-76
2023/12/12 10:02:02;;;;;;;49.80;19.23;;;;;;;2.26;100.00;100064.75;126587;1089;104165;-77
2023/12/12 10:04:38;;;;;;;46.43;19.30;;;;;;;2.19;100.00;100052.25;127124;1089;101799;-77
2023/12/12 10:07:13;;;;;;;45.90;18.67;;;;;;;2.22;100.00;100060.20;127282;1089;102176;-79
2023/12/12 10:09:42;;;;;;;46.03;18.93;;;;;;;2.23;100.00;100054.20;126700;1086;104386;-78
2023/12/12 10:12:12;;;;;;;42.43;18.10;;;;;;;2.25;100.00;100062.98;127722;1085;101983;-77
2023/12/12 10:14:54;;;;;;;43.60;18.20;;;;;;;2.31;100.00;100063.36;127459;1089;101746;-80
2023/12/12 10:17:28;;;;;;;45.27;18.73;;;;;;;2.37;100.00;100063.73;127645;1089;104159;-80
2023/12/12 10:20:36;;;;;;;45.10;17.73;;;;;;;2.48;100.00;100065.28;127040;1086;104043;-77
2023/12/12 10:23:21;;;;;;;43.50;18.77;;;;;;;2.60;100.00;100061.63;128427;1086;104062;-78
2023/12/12 10:26:23;;;;;;;46.60;19.47;;;;;;;2.68;100.00;100068.16;127922;1086;102041;-76
2023/12/12 10:29:01;;;;;;;46.53;19.07;;;;;;;2.75;100.00;100067.74;127732;1086;101734;-76
2023/12/12 10:31:37;;;;;;;44.53;17.80;;;;;;;2.75;100.00;100061.67;127412;1089;104188;-74
2023/12/12 10:34:27;;;;;;;42.97;18.63;;;;;;;2.63;100.00;100057.55;127177;1089;101917;-74
2023/12/12 10:37:00;;;;;;;45.97;18.87;;;;;;;2.48;100.00;100057.51;127040;1086;102215;-76
2023/12/12 10:39:31;;;;;;;43.87;18.60;;;;;;;2.40;100.00;100055.23;127009;1086;104171;-77
2023/12/12 10:42:07;;;;;;;47.17;18.83;;;;;;;2.38;100.00;100047.37;126448;1086;102243;-77
2023/12/12 10:44:47;;;;;;;45.90;18.20;;;;;;;2.44;100.00;100054.64;127276;1086;101957;-78
2023/12/12 10:47:25;;;;;;;47.27;19.23;;;;;;;2.51;100.00;100057.70;126509;1086;112130;-75
2023/12/12 10:50:32;;;;;;;48.83;19.70;;;;;;;2.59;100.00;100058.16;127064;1090;104154;-78
2023/12/12 10:53:37;;;;;;;45.27;18.37;;;;;;;2.69;100.00;100057.01;127277;1086;104104;-78
2023/12/12 10:56:38;;;;;;;;;;;;;;;;;;;;;
2023/12/12 10:59:18;;;;;;;44.67;18.17;;;;;;;2.80;100.00;100042.98;126802;1087;102277;-75
2023/12/12 11:02:09;;;;;;;50.80;19.53;;;;;;;2.88;100.00;100051.22;127175;1089;101905;-76
2023/12/12 11:04:56;;;;;;;46.57;19.67;;;;;;;2.95;100.00;100055.09;127446;1086;104239;-76
2023/12/12 11:07:40;;;;;;;;;;;;;;;;;;;;;
2023/12/12 11:10:19;;;;;;;47.73;17.70;;;;;;;2.97;100.00;100058.65;126559;1087;104225;-77
2023/12/12 11:13:00;;;;;;;41.77;17.37;;;;;;;2.87;100.00;100057.22;126301;1089;102248;-75
2023/12/12 11:15:44;;;;;;;45.57;18.77;;;;;;;2.77;100.00;100060.06;126067;1086;104232;-73
2023/12/12 11:18:23;;;;;;;45.70;19.53;;;;;;;2.67;100.00;100062.09;126037;1089;104220;-74
2023/12/12 11:20:52;;;;;;;47.30;19.50;;;;;;;2.64;100.00;100061.03;126106;1089;104169;-73
2023/12/12 11:23:53;;;;;;;40.47;17.00;;;;;;;2.63;100.00;100056.64;127116;1089;101888;-75
2023/12/12 11:26:37;;;;;;;45.37;18.30;;;;;;;2.52;100.00;100058.58;126376;1089;101976;-76
2023/12/12 11:29:24;;;;;;;48.07;19.87;;;;;;;2.38;100.00;100067.21;127534;1085;102355;-76
2023/12/12 11:32:05;;;;;;;47.40;19.67;;;;;;;2.33;100.00;100065.22;128075;1085;101821;-75
2023/12/12 11:34:43;;;;;;;47.65;20.48;;;;;;;2.32;100.00;100075.48;126379;1086;102094;-74
2023/12/12 11:37:43;;;;;;;47.27;19.73;;;;;;;2.34;100.00;100068.73;126373;1086;102177;-75